Time;durP1;ratioP1;P1;durP2;ratioP2;P2;SDS_P1;SDS_P2;PMS_P1;PMS_P2;Temp;Humidity;BMP_temperature;BMP_pressure;BME280_temperature;BME280_humidity;BME280_pressure;Samples;Min_cycle;Max_cycle;Signal;HPM_P1;HPM_P2
2023/04/30 00:01:48;;;;;;;5.43;2.60;;;8.90;99.90;;;;;;5016053;28;20069;-83
2023/04/30 00:04:14;;;;;;;4.45;2.88;;;8.80;99.90;;;;;;5018743;28;20041;-83
2023/04/30 00:06:40;;;;;;;4.20;2.58;;;8.80;99.90;;;;;;5012281;28;20032;-82
2023/04/30 00:09:05;;;;;;;4.93;2.80;;;8.80;99.90;;;;;;5018747;28;20038;-84
2023/04/30 00:11:31;;;;;;;5.28;2.92;;;8.70;99.90;;;;;;5015260;28;20410;-84
2023/04/30 00:13:57;;;;;;;5.25;2.70;;;8.70;99.90;;;;;;5014754;28;20135;-83
2023/04/30 00:16:22;;;;;;;4.40;3.13;;;8.70;99.90;;;;;;5015422;28;20041;-83
2023/04/30 00:18:48;;;;;;;3.65;2.70;;;8.60;99.90;;;;;;5016578;28;20033;-82
2023/04/30 00:21:13;;;;;;;4.47;2.60;;;8.60;99.90;;;;;;5020761;28;20608;-83
2023/04/30 00:23:39;;;;;;;4.50;2.75;;;8.60;99.90;;;;;;5016248;28;20061;-82
2023/04/30 00:26:04;;;;;;;3.58;2.45;;;8.50;99.90;;;;;;5017497;28;20053;-83
2023/04/30 00:28:30;;;;;;;4.68;2.90;;;8.50;99.90;;;;;;5025800;28;20032;-82
2023/04/30 00:30:55;;;;;;;4.93;2.78;;;8.50;99.90;;;;;;5034062;28;20022;-83
2023/04/30 00:33:21;;;;;;;3.88;2.65;;;8.50;99.90;;;;;;5017140;28;20030;-82
2023/04/30 00:35:47;;;;;;;4.05;2.67;;;8.50;99.90;;;;;;5017528;28;20060;-82
2023/04/30 00:38:12;;;;;;;5.40;3.05;;;8.50;99.90;;;;;;5017575;28;20698;-84
2023/04/30 00:40:41;;;;;;;3.70;2.35;;;8.40;99.90;;;;;;5015996;28;20057;-82
2023/04/30 00:43:06;;;;;;;3.35;2.40;;;8.40;99.90;;;;;;5017570;28;20033;-84
2023/04/30 00:45:32;;;;;;;5.88;2.90;;;8.40;99.90;;;;;;5016975;28;20038;-83
2023/04/30 00:47:58;;;;;;;4.80;3.08;;;8.30;99.90;;;;;;5017983;28;20109;-82
2023/04/30 00:50:23;;;;;;;4.05;2.90;;;8.30;99.90;;;;;;5019183;28;20192;-82
2023/04/30 00:52:50;;;;;;;4.97;3.30;;;8.30;99.90;;;;;;5032091;28;20045;-83
2023/04/30 00:55:16;;;;;;;4.40;2.90;;;8.20;99.90;;;;;;5016388;28;20044;-84
2023/04/30 00:57:41;;;;;;;3.63;2.47;;;8.20;99.90;;;;;;5033155;28;20406;-84
2023/04/30 01:00:11;;;;;;;4.30;2.85;;;8.20;99.90;;;;;;5027457;28;20032;-83
2023/04/30 01:02:37;;;;;;;5.03;2.72;;;8.20;99.90;;;;;;5019233;28;20060;-82
2023/04/30 01:05:03;;;;;;;4.22;2.45;;;8.20;99.90;;;;;;5017978;28;20048;-82
2023/04/30 01:07:30;;;;;;;3.50;2.25;;;8.20;99.90;;;;;;5018302;28;20033;-84
2023/04/30 01:09:56;;;;;;;4.10;2.47;;;8.20;99.90;;;;;;5016653;28;20049;-84
2023/04/30 01:12:48;;;;;;;4.85;2.38;;;8.20;99.90;;;;;;5027171;28;20042;-85
2023/04/30 01:15:26;;;;;;;4.43;2.40;;;8.10;99.90;;;;;;5017415;28;20063;-85
2023/04/30 01:18:18;;;;;;;4.40;2.45;;;8.10;99.90;;;;;;5033181;28;20060;-83
2023/04/30 01:21:00;;;;;;;4.38;2.65;;;8.10;99.90;;;;;;5018121;28;20029;-83
2023/04/30 01:23:38;;;;;;;5.90;2.85;;;8.00;99.90;;;;;;5013797;28;20039;-85
2023/04/30 01:26:14;;;;;;;3.60;2.33;;;8.00;99.90;;;;;;5014776;28;20033;-82
2023/04/30 01:28:43;;;;;;;4.45;2.63;;;8.00;99.90;;;;;;5030973;28;20673;-82
2023/04/30 01:31:13;;;;;;;4.32;2.67;;;7.90;99.90;;;;;;5014551;28;20029;-84
2023/04/30 01:33:39;;;;;;;3.95;2.40;;;7.90;99.90;;;;;;5016205;28;20468;-83
2023/04/30 01:36:16;;;;;;;4.20;2.80;;;7.90;99.90;;;;;;5016094;28;20100;-83
2023/04/30 01:39:07;;;;;;;4.35;2.60;;;7.90;99.90;;;;;;5015659;28;20061;-83
2023/04/30 01:41:39;;;;;;;6.07;3.10;;;7.90;99.90;;;;;;5015094;28;20026;-81
2023/04/30 01:44:12;;;;;;;3.65;2.45;;;7.90;99.90;;;;;;5023134;28;20022;-82
2023/04/30 01:46:41;;;;;;;4.75;2.80;;;7.90;99.90;;;;;;5014771;28;20398;-83
2023/04/30 01:49:34;;;;;;;4.68;2.67;;;7.80;99.90;;;;;;5017912;28;20030;-81
2023/04/30 01:52:26;;;;;;;5.50;3.00;;;7.80;99.90;;;;;;5015838;28;20034;-82
2023/04/30 01:54:58;;;;;;;4.20;2.58;;;7.70;99.90;;;;;;5012799;28;20514;-82
2023/04/30 01:57:50;;;;;;;4.35;2.50;;;7.70;99.90;;;;;;5016198;28;20464;-81
2023/04/30 02:00:16;;;;;;;5.60;3.40;;;7.70;99.90;;;;;;5015381;28;20025;-82
2023/04/30 02:02:42;;;;;;;4.40;2.47;;;7.60;99.90;;;;;;5017431;28;20036;-82
2023/04/30 02:05:08;;;;;;;5.15;2.67;;;7.60;99.90;;;;;;5017203;28;20045;-81
2023/04/30 02:07:43;;;;;;;4.43;2.92;;;7.60;99.90;;;;;;5015098;28;20392;-82
2023/04/30 02:10:12;;;;;;;4.07;2.90;;;7.60;99.90;;;;;;5014598;28;20427;-82
2023/04/30 02:12:39;;;;;;;4.40;2.75;;;7.60;99.90;;;;;;5014953;28;20030;-82
2023/04/30 02:15:05;;;;;;;4.43;2.97;;;7.60;99.90;;;;;;5015249;28;20030;-82
2023/04/30 02:17:31;;;;;;;4.75;3.35;;;7.50;99.90;;;;;;5019479;28;20497;-82
2023/04/30 02:19:58;;;;;;;5.22;3.03;;;7.50;99.90;;;;;;5020778;28;20029;-82
2023/04/30 02:22:24;;;;;;;5.63;3.22;;;7.50;99.90;;;;;;5014468;28;20061;-81
2023/04/30 02:24:52;;;;;;;5.03;3.15;;;7.50;99.90;;;;;;5029723;28;20188;-83
2023/04/30 02:27:19;;;;;;;5.93;3.53;;;7.50;99.90;;;;;;5016677;28;20051;-82
2023/04/30 02:29:44;;;;;;;6.32;3.53;;;7.50;99.90;;;;;;5016846;28;20018;-82
2023/04/30 02:32:10;;;;;;;4.47;3.13;;;7.50;99.90;;;;;;5012946;28;20558;-82
2023/04/30 02:34:35;;;;;;;4.85;3.10;;;7.50;99.90;;;;;;5024894;28;20068;-82
2023/04/30 02:37:02;;;;;;;3.67;2.72;;;7.50;99.90;;;;;;5017124;28;20112;-82
2023/04/30 02:39:27;;;;;;;4.75;3.00;;;7.50;99.90;;;;;;5012828;28;20021;-82
2023/04/30 02:41:53;;;;;;;5.97;3.10;;;7.50;99.90;;;;;;5014779;28;20056;-82
2023/04/30 02:44:18;;;;;;;4.95;2.65;;;7.50;99.90;;;;;;5014652;28;20112;-81
2023/04/30 02:46:44;;;;;;;3.50;2.63;;;7.50;99.90;;;;;;5015556;28;20394;-82
2023/04/30 02:49:09;;;;;;;4.53;3.33;;;7.40;99.90;;;;;;5014954;28;20744;-82
2023/04/30 02:51:35;;;;;;;5.00;3.05;;;7.40;99.90;;;;;;5017744;28;20564;-82
2023/04/30 02:54:00;;;;;;;4.15;2.58;;;7.40;99.90;;;;;;5015297;28;20049;-81
2023/04/30 02:56:26;;;;;;;3.60;2.60;;;7.40;99.90;;;;;;5013694;28;20044;-82
2023/04/30 02:58:52;;;;;;;4.45;2.88;;;7.40;99.90;;;;;;5013773;28;20018;-83
2023/04/30 03:01:18;;;;;;;6.47;3.28;;;7.40;99.90;;;;;;5015211;28;20045;-83
2023/04/30 03:03:43;;;;;;;6.20;3.30;;;7.40;99.90;;;;;;5018733;28;20033;-80
2023/04/30 03:06:09;;;;;;;5.03;2.70;;;7.30;99.90;;;;;;5031080;28;20044;-82
2023/04/30 03:08:34;;;;;;;4.30;2.88;;;7.30;99.90;;;;;;5013581;28;20446;-82
2023/04/30 03:11:00;;;;;;;4.82;2.95;;;7.30;99.90;;;;;;5013947;28;20056;-82
2023/04/30 03:13:26;;;;;;;4.50;2.90;;;7.30;99.90;;;;;;5013681;28;20036;-81
2023/04/30 03:15:58;;;;;;;4.60;2.90;;;7.30;99.90;;;;;;5015633;28;20037;-82
2023/04/30 03:18:24;;;;;;;4.07;2.30;;;7.30;99.90;;;;;;5029052;28;20026;-82
2023/04/30 03:20:50;;;;;;;4.30;2.58;;;7.20;99.90;;;;;;5015564;28;20029;-82
2023/04/30 03:23:16;;;;;;;4.15;2.55;;;7.20;99.90;;;;;;5014089;28;20499;-79
2023/04/30 03:25:41;;;;;;;5.88;2.72;;;7.20;99.90;;;;;;5019722;28;20034;-82
2023/04/30 03:28:07;;;;;;;5.65;3.05;;;7.20;99.90;;;;;;5014166;28;20036;-83
2023/04/30 03:30:32;;;;;;;5.22;2.90;;;7.20;99.90;;;;;;5013416;28;20026;-82
2023/04/30 03:32:58;;;;;;;6.13;2.85;;;7.10;99.90;;;;;;5015150;28;20038;-81
2023/04/30 03:35:24;;;;;;;4.10;2.63;;;7.10;99.90;;;;;;5014848;28;20029;-80
2023/04/30 03:37:49;;;;;;;4.07;2.50;;;7.10;99.90;;;;;;5019446;28;20022;-81
2023/04/30 03:40:15;;;;;;;3.70;2.45;;;7.10;99.90;;;;;;5012675;28;20116;-82
2023/04/30 03:42:40;;;;;;;4.47;2.92;;;7.10;99.90;;;;;;5013716;28;20048;-81
2023/04/30 03:45:06;;;;;;;4.70;3.10;;;7.10;99.90;;;;;;5014832;28;20033;-82
2023/04/30 03:47:35;;;;;;;5.38;3.10;;;7.10;99.90;;;;;;5012098;28;20056;-83
2023/04/30 03:50:02;;;;;;;4.68;2.88;;;7.10;99.90;;;;;;5016044;28;20079;-83
2023/04/30 03:52:29;;;;;;;5.35;2.95;;;7.00;99.90;;;;;;5015888;28;20030;-83
2023/04/30 03:54:54;;;;;;;4.90;2.65;;;7.00;99.90;;;;;;5012779;28;20787;-82
2023/04/30 03:57:20;;;;;;;4.30;2.65;;;7.00;99.90;;;;;;5014637;28;20037;-82
2023/04/30 03:59:46;;;;;;;6.25;2.97;;;7.00;99.90;;;;;;5018124;28;20021;-82
2023/04/30 04:02:12;;;;;;;3.60;2.45;;;7.00;99.90;;;;;;5018879;28;20032;-82
2023/04/30 04:04:38;;;;;;;5.70;2.95;;;6.90;99.90;;;;;;5017870;28;20510;-83
2023/04/30 04:07:03;;;;;;;4.43;2.80;;;6.90;99.90;;;;;;5019733;28;20022;-84
2023/04/30 04:09:29;;;;;;;6.78;3.00;;;6.90;99.90;;;;;;5019212;28;20060;-82
2023/04/30 04:11:55;;;;;;;4.90;3.05;;;6.90;99.90;;;;;;5016518;28;20076;-82
2023/04/30 04:14:20;;;;;;;5.80;3.45;;;6.90;99.90;;;;;;5026252;28;20048;-82
2023/04/30 04:16:46;;;;;;;5.60;2.90;;;6.90;99.90;;;;;;5015757;28;20037;-83
2023/04/30 04:19:12;;;;;;;6.35;3.45;;;6.90;99.90;;;;;;5017447;28;20025;-81
2023/04/30 04:21:37;;;;;;;4.95;2.75;;;6.90;99.90;;;;;;5015902;28;20037;-82
2023/04/30 04:24:07;;;;;;;4.68;3.05;;;6.90;99.90;;;;;;5019037;28;20395;-82
2023/04/30 04:26:35;;;;;;;4.45;2.55;;;6.90;99.90;;;;;;5015530;28;20129;-82
2023/04/30 04:29:00;;;;;;;5.22;3.00;;;6.90;99.90;;;;;;5018781;28;20029;-83
2023/04/30 04:31:27;;;;;;;5.32;2.92;;;6.90;99.90;;;;;;5015490;28;20029;-82
2023/04/30 04:33:57;;;;;;;5.38;2.80;;;6.90;99.90;;;;;;5018698;28;20030;-82
2023/04/30 04:36:26;;;;;;;5.40;2.85;;;6.90;99.90;;;;;;5017316;28;20009;-82
2023/04/30 04:38:52;;;;;;;5.85;3.03;;;6.90;99.90;;;;;;5018542;28;20036;-82
2023/04/30 04:41:18;;;;;;;4.07;2.90;;;6.90;99.90;;;;;;5017170;28;20073;-81
2023/04/30 04:43:44;;;;;;;5.45;3.30;;;6.90;99.90;;;;;;5015961;28;20034;-82
2023/04/30 04:46:10;;;;;;;4.75;3.05;;;6.90;99.90;;;;;;5015598;28;20042;-82
2023/04/30 04:48:35;;;;;;;4.35;2.95;;;6.90;99.90;;;;;;5016955;28;20033;-82
2023/04/30 04:51:01;;;;;;;5.07;2.97;;;6.90;99.90;;;;;;5017693;28;20033;-80
2023/04/30 04:53:26;;;;;;;5.53;3.00;;;7.00;99.90;;;;;;5016805;28;20036;-81
2023/04/30 04:55:52;;;;;;;5.25;3.13;;;7.00;99.90;;;;;;5015696;28;20041;-82
2023/04/30 04:58:17;;;;;;;3.75;2.47;;;7.00;99.90;;;;;;5016639;28;20026;-82
2023/04/30 05:00:44;;;;;;;5.57;3.50;;;7.00;99.90;;;;;;5017583;28;20073;-82
2023/04/30 05:03:09;;;;;;;4.40;3.25;;;7.00;99.90;;;;;;5017117;28;20033;-82
2023/04/30 05:05:35;;;;;;;5.03;3.42;;;7.00;99.90;;;;;;5031523;28;20487;-84
2023/04/30 05:08:01;;;;;;;5.20;3.10;;;7.00;99.90;;;;;;5017633;28;20083;-83
2023/04/30 05:10:26;;;;;;;5.30;3.25;;;7.10;99.90;;;;;;5017511;28;20050;-83
2023/04/30 05:12:52;;;;;;;5.53;3.25;;;7.10;99.90;;;;;;5015361;28;20045;-83
2023/04/30 05:15:17;;;;;;;5.07;3.30;;;7.10;99.90;;;;;;5016886;28;20045;-84
2023/04/30 05:17:43;;;;;;;5.10;3.10;;;7.20;99.90;;;;;;5017151;28;20069;-84
2023/04/30 05:20:09;;;;;;;5.15;3.47;;;7.20;99.90;;;;;;5032083;28;20029;-84
2023/04/30 05:22:35;;;;;;;6.28;3.58;;;7.30;99.90;;;;;;5017451;28;20025;-83
2023/04/30 05:25:00;;;;;;;4.85;3.58;;;7.30;99.90;;;;;;5016830;28;20099;-82
2023/04/30 05:27:26;;;;;;;4.97;3.58;;;7.30;99.90;;;;;;5016648;28;20037;-83
2023/04/30 05:29:51;;;;;;;5.93;4.45;;;7.40;99.90;;;;;;5016159;28;20041;-83
2023/04/30 05:32:17;;;;;;;5.97;3.75;;;7.40;99.90;;;;;;5015115;28;20044;-84
2023/04/30 05:34:42;;;;;;;7.90;4.65;;;7.50;99.90;;;;;;5017980;28;20025;-84
2023/04/30 05:37:08;;;;;;;5.18;3.80;;;7.50;99.90;;;;;;5017705;28;20037;-85
2023/04/30 05:39:34;;;;;;;6.10;3.97;;;7.60;99.90;;;;;;5017589;28;20380;-83
2023/04/30 05:42:01;;;;;;;6.72;4.18;;;7.60;99.90;;;;;;5015401;28;20018;-84
2023/04/30 05:44:29;;;;;;;6.07;4.07;;;7.70;99.90;;;;;;5016313;28;20057;-84
2023/04/30 05:46:55;;;;;;;5.70;3.88;;;7.80;99.90;;;;;;5020728;28;20033;-82
2023/04/30 05:49:20;;;;;;;7.07;3.67;;;7.80;99.90;;;;;;5015204;28;20077;-83
2023/04/30 05:51:46;;;;;;;5.18;3.20;;;7.90;99.90;;;;;;5017060;28;20382;-84
2023/04/30 05:54:11;;;;;;;7.18;3.50;;;7.90;99.90;;;;;;5032877;28;20037;-83
2023/04/30 05:56:37;;;;;;;8.15;3.85;;;8.00;99.90;;;;;;5016220;28;20040;-85
2023/04/30 05:59:02;;;;;;;9.55;5.15;;;8.00;99.90;;;;;;5015044;28;20025;-84
2023/04/30 06:01:28;;;;;;;8.63;4.68;;;8.00;99.90;;;;;;5031405;28;20037;-82
2023/04/30 06:03:54;;;;;;;6.07;4.05;;;8.20;99.90;;;;;;5017279;28;20076;-82
2023/04/30 06:06:19;;;;;;;7.05;4.40;;;8.20;99.90;;;;;;5013653;28;20132;-83
2023/04/30 06:08:45;;;;;;;7.70;4.50;;;8.30;99.90;;;;;;5018455;28;20026;-85
2023/04/30 06:11:11;;;;;;;6.55;3.95;;;8.30;99.90;;;;;;5019934;28;20033;-84
2023/04/30 06:13:38;;;;;;;5.55;4.43;;;8.30;99.90;;;;;;5026544;28;20089;-85
2023/04/30 06:16:05;;;;;;;6.80;3.95;;;8.40;99.90;;;;;;5018081;28;20116;-85
2023/04/30 06:18:30;;;;;;;5.85;3.88;;;8.40;99.90;;;;;;5018798;28;20120;-84
2023/04/30 06:20:56;;;;;;;7.00;4.68;;;8.50;99.90;;;;;;5018773;28;20116;-83
2023/04/30 06:23:21;;;;;;;7.90;5.30;;;8.60;99.90;;;;;;5019143;28;20048;-83
2023/04/30 06:25:47;;;;;;;7.53;5.57;;;8.60;99.90;;;;;;5017590;28;20034;-85
2023/04/30 06:28:13;;;;;;;7.85;4.70;;;8.70;99.90;;;;;;5020716;28;20049;-84
2023/04/30 06:30:40;;;;;;;6.47;4.30;;;8.70;99.90;;;;;;5020654;28;20493;-84
2023/04/30 06:33:05;;;;;;;7.35;4.60;;;8.80;99.90;;;;;;5033018;28;20021;-83
2023/04/30 06:35:31;;;;;;;6.00;4.07;;;8.90;99.90;;;;;;5015601;28;20041;-83
2023/04/30 06:37:56;;;;;;;5.70;4.07;;;8.90;99.90;;;;;;5016713;28;20049;-85
2023/04/30 06:40:22;;;;;;;7.15;3.83;;;8.90;99.90;;;;;;5021730;28;20033;-85
2023/04/30 06:42:48;;;;;;;6.95;4.30;;;9.00;99.90;;;;;;5017275;28;20020;-86
2023/04/30 06:45:14;;;;;;;7.07;3.97;;;9.00;99.90;;;;;;5018775;28;20039;-86
2023/04/30 06:47:41;;;;;;;5.47;3.53;;;9.10;99.90;;;;;;5022826;28;20479;-84
2023/04/30 06:50:07;;;;;;;6.15;3.88;;;9.10;99.90;;;;;;5019716;28;20021;-85
2023/04/30 06:52:33;;;;;;;6.90;3.53;;;9.10;99.90;;;;;;5017922;28;20096;-85
2023/04/30 06:54:59;;;;;;;5.65;3.60;;;9.20;99.90;;;;;;5027214;28;20044;-85
2023/04/30 06:57:26;;;;;;;7.13;4.10;;;9.30;99.90;;;;;;5027701;28;20029;-86
2023/04/30 06:59:52;;;;;;;6.15;4.30;;;9.30;99.90;;;;;;5015100;28;20026;-84
2023/04/30 07:02:17;;;;;;;6.07;4.50;;;9.40;99.90;;;;;;5032655;28;20041;-85
2023/04/30 07:04:43;;;;;;;7.13;4.38;;;9.40;99.90;;;;;;5020977;28;20514;-86
2023/04/30 07:07:09;;;;;;;7.43;4.97;;;9.50;99.90;;;;;;5020191;28;20033;-85
2023/04/30 07:09:35;;;;;;;9.27;5.88;;;9.50;99.90;;;;;;5017218;28;20042;-85
2023/04/30 07:12:01;;;;;;;8.43;6.00;;;9.60;99.90;;;;;;5021688;28;20054;-86
2023/04/30 07:14:27;;;;;;;8.18;4.57;;;9.60;99.90;;;;;;5020398;28;20395;-86
2023/04/30 07:16:52;;;;;;;6.55;4.65;;;9.70;99.90;;;;;;5024002;28;20104;-85
2023/04/30 07:19:18;;;;;;;7.50;4.63;;;9.70;99.90;;;;;;5032970;28;20486;-86
2023/04/30 07:21:45;;;;;;;5.88;4.35;;;9.80;99.90;;;;;;5017788;28;20121;-84
2023/04/30 07:24:10;;;;;;;5.60;3.90;;;9.80;99.90;;;;;;5016016;28;20032;-85
2023/04/30 07:26:36;;;;;;;6.20;4.32;;;9.80;99.90;;;;;;5030834;28;20029;-86
2023/04/30 07:29:02;;;;;;;7.00;4.85;;;9.90;99.90;;;;;;5012312;28;20032;-85
2023/04/30 07:31:28;;;;;;;5.18;4.25;;;9.90;99.90;;;;;;5014233;28;21138;-83
2023/04/30 07:33:54;;;;;;;6.25;4.18;;;9.90;99.90;;;;;;5020203;28;20108;-83
2023/04/30 07:36:20;;;;;;;9.07;5.50;;;10.00;99.90;;;;;;5022936;28;20033;-86
2023/04/30 07:38:46;;;;;;;6.88;4.60;;;10.00;99.90;;;;;;5019119;28;20152;-86
2023/04/30 07:41:12;;;;;;;6.93;4.90;;;10.00;99.90;;;;;;5026425;28;20108;-86
2023/04/30 07:43:38;;;;;;;5.45;4.07;;;10.10;99.90;;;;;;5025175;28;20029;-86
2023/04/30 07:46:03;;;;;;;6.47;4.25;;;10.10;99.90;;;;;;5027219;28;20082;-88
2023/04/30 07:48:29;;;;;;;7.63;4.32;;;10.30;99.90;;;;;;5027315;28;20115;-88
2023/04/30 07:50:56;;;;;;;5.65;3.83;;;10.30;99.90;;;;;;5026115;28;20064;-89
2023/04/30 07:53:22;;;;;;;9.35;4.80;;;10.40;99.90;;;;;;5021350;28;20017;-85
2023/04/30 07:55:48;;;;;;;6.50;4.35;;;10.40;99.90;;;;;;5018050;28;20044;-85
2023/04/30 07:58:13;;;;;;;6.97;4.40;;;10.50;99.90;;;;;;5022188;28;20029;-84
2023/04/30 08:00:39;;;;;;;6.15;3.70;;;10.50;99.90;;;;;;5021777;28;20036;-84
2023/04/30 08:03:05;;;;;;;7.32;4.75;;;10.60;99.90;;;;;;5022335;28;20033;-84
2023/04/30 08:05:30;;;;;;;7.70;4.18;;;10.70;99.90;;;;;;5020875;28;20041;-85
2023/04/30 08:07:56;;;;;;;7.28;5.22;;;10.70;99.90;;;;;;5022337;28;20121;-86
2023/04/30 08:10:22;;;;;;;7.53;5.03;;;10.80;99.90;;;;;;5022818;28;20046;-85
2023/04/30 08:12:47;;;;;;;9.63;5.75;;;10.80;99.90;;;;;;5028567;28;20052;-86
2023/04/30 08:15:13;;;;;;;8.07;5.72;;;10.80;99.90;;;;;;5028872;28;20033;-86
2023/04/30 08:17:38;;;;;;;5.88;4.60;;;10.90;99.90;;;;;;5029176;28;20083;-86
2023/04/30 08:20:06;;;;;;;7.72;4.60;;;10.90;99.90;;;;;;5039861;28;20030;-86
2023/04/30 08:22:32;;;;;;;7.85;4.32;;;11.00;99.90;;;;;;5017820;28;20535;-84
2023/04/30 08:25:00;;;;;;;6.05;4.28;;;11.10;99.90;;;;;;5017990;28;20041;-85
2023/04/30 08:27:26;;;;;;;6.57;5.03;;;11.10;99.90;;;;;;5020651;28;20099;-86
2023/04/30 08:29:51;;;;;;;5.53;4.00;;;11.20;99.90;;;;;;5025782;28;20475;-85
2023/04/30 08:32:18;;;;;;;4.82;3.67;;;11.30;99.90;;;;;;5022326;28;20026;-84
2023/04/30 08:34:43;;;;;;;6.50;4.38;;;11.40;99.90;;;;;;5020231;28;20025;-83
2023/04/30 08:37:09;;;;;;;5.60;3.65;;;11.40;99.90;;;;;;5023757;28;20099;-84
2023/04/30 08:39:35;;;;;;;7.55;4.40;;;11.40;99.90;;;;;;5021973;28;20116;-87
2023/04/30 08:42:07;;;;;;;6.65;4.40;;;11.40;99.90;;;;;;5025652;28;20029;-88
2023/04/30 08:44:35;;;;;;;7.20;4.60;;;11.50;99.90;;;;;;5023602;28;20398;-85
2023/04/30 08:47:02;;;;;;;6.18;3.90;;;11.60;99.90;;;;;;5026546;28;20167;-89
2023/04/30 08:49:31;;;;;;;5.43;3.75;;;11.70;99.90;;;;;;5027975;28;20056;-86
2023/04/30 08:51:59;;;;;;;6.95;5.10;;;11.70;99.90;;;;;;5026480;28;20029;-86
2023/04/30 08:54:27;;;;;;;7.70;4.50;;;11.80;99.90;;;;;;5027547;28;20021;-86
2023/04/30 08:56:56;;;;;;;6.78;5.03;;;11.90;99.90;;;;;;5030763;28;20033;-89
2023/04/30 08:59:21;;;;;;;7.20;4.65;;;11.90;99.90;;;;;;5027025;28;20375;-85
2023/04/30 09:01:47;;;;;;;4.68;3.65;;;12.00;99.90;;;;;;5020483;28;20030;-85
2023/04/30 09:04:12;;;;;;;5.25;3.70;;;12.10;99.90;;;;;;5020810;28;20779;-85
2023/04/30 09:06:38;;;;;;;6.72;3.35;;;12.20;99.90;;;;;;5028722;28;20033;-86
2023/04/30 09:09:14;;;;;;;5.40;3.78;;;12.30;99.90;;;;;;5027922;28;20045;-83
2023/04/30 09:11:40;;;;;;;6.53;4.63;;;12.40;99.90;;;;;;5023799;28;20030;-86
2023/04/30 09:14:07;;;;;;;6.72;3.88;;;12.50;99.90;;;;;;5023201;28;20026;-86
2023/04/30 09:16:49;;;;;;;7.35;4.20;;;12.70;99.90;;;;;;5030106;28;20498;-86
2023/04/30 09:19:29;;;;;;;7.50;5.32;;;12.80;99.90;;;;;;5024761;28;20022;-89
2023/04/30 09:21:55;;;;;;;7.18;4.72;;;12.90;99.90;;;;;;5027796;28;20026;-87
2023/04/30 09:24:21;;;;;;;5.97;4.10;;;13.00;99.90;;;;;;5028576;28;20029;-88
2023/04/30 09:26:48;;;;;;;5.32;3.47;;;13.10;99.90;;;;;;5031707;28;20033;-86
2023/04/30 09:29:14;;;;;;;6.72;4.82;;;13.20;99.90;;;;;;5027903;28;20557;-86
2023/04/30 09:31:45;;;;;;;6.30;3.95;;;13.30;99.90;;;;;;5017956;28;20026;-87
2023/04/30 09:34:11;;;;;;;5.07;3.35;;;13.50;99.90;;;;;;5041676;28;20117;-89
2023/04/30 09:36:50;;;;;;;5.40;3.28;;;14.50;99.90;;;;;;5012404;28;20026;-88
2023/04/30 09:39:18;;;;;;;5.57;3.65;;;15.90;99.90;;;;;;5015796;28;20032;-84
2023/04/30 09:41:44;;;;;;;4.47;3.13;;;17.30;99.90;;;;;;5020630;28;20029;-84
2023/04/30 09:44:31;;;;;;;5.60;3.00;;;18.30;99.90;;;;;;5023633;28;20029;-86
2023/04/30 09:46:57;;;;;;;4.13;2.78;;;19.40;99.90;;;;;;5023891;28;20026;-87
2023/04/30 09:49:23;;;;;;;4.05;2.47;;;19.90;99.90;;;;;;5028076;28;20025;-86
2023/04/30 09:51:59;;;;;;;5.75;2.67;;;20.30;99.90;;;;;;5019403;28;20080;-86
2023/04/30 09:54:30;;;;;;;3.72;2.60;;;20.80;99.90;;;;;;5017524;28;20644;-89
2023/04/30 09:57:01;;;;;;;4.15;2.45;;;21.20;99.90;;;;;;5019124;28;20254;-86
2023/04/30 09:59:34;;;;;;;3.15;2.00;;;21.50;99.90;;;;;;5012330;28;20022;-82
2023/04/30 10:02:03;;;;;;;;;;;21.80;99.90;;;;;;5016681;28;20041;-88
2023/04/30 10:04:41;;;;;;;3.13;1.73;;;22.10;99.90;;;;;;5017271;28;20000;-83
2023/04/30 10:07:18;;;;;;;3.67;1.80;;;22.70;99.90;;;;;;5021040;28;20029;-82
2023/04/30 10:10:07;;;;;;;2.95;2.15;;;23.00;99.90;;;;;;5016666;28;20049;-86
2023/04/30 10:12:46;;;;;;;3.58;2.30;;;23.00;99.90;;;;;;5017324;28;20041;-86
2023/04/30 10:15:18;;;;;;;3.67;2.20;;;23.00;99.90;;;;;;5020518;28;20022;-87
2023/04/30 10:17:50;;;;;;;5.03;2.53;;;22.90;99.90;;;;;;5019285;28;20033;-87
2023/04/30 10:20:17;;;;;;;4.03;1.80;;;22.80;99.90;;;;;;5025553;28;20040;-87
2023/04/30 10:22:45;;;;;;;3.38;1.45;;;23.00;99.90;;;;;;5021633;28;20084;-83
2023/04/30 10:25:12;;;;;;;2.78;1.52;;;23.20;99.90;;;;;;5021222;28;20044;-86
2023/04/30 10:27:38;;;;;;;3.38;1.67;;;23.50;99.90;;;;;;5019247;28;20021;-87
2023/04/30 10:30:07;;;;;;;3.97;1.58;;;23.50;99.90;;;;;;5014906;28;20135;-89
2023/04/30 10:32:40;;;;;;;2.58;1.60;;;23.50;99.90;;;;;;5017875;28;20033;-84
2023/04/30 10:35:15;;;;;;;2.88;1.33;;;23.80;99.90;;;;;;5023861;28;20026;-89
2023/04/30 10:37:53;;;;;;;2.70;1.55;;;24.10;99.90;;;;;;5021526;28;20041;-90
2023/04/30 10:40:18;;;;;;;2.75;1.10;;;24.40;99.90;;;;;;5022832;28;20068;-89
2023/04/30 10:42:47;;;;;;;1.88;1.30;;;24.50;99.90;;;;;;5027143;28;20065;-88
2023/04/30 10:45:15;;;;;;;2.40;1.55;;;24.80;99.90;;;;;;5021027;28;20087;-86
2023/04/30 10:47:44;;;;;;;2.53;1.70;;;25.00;99.90;;;;;;5017182;28;20029;-88
2023/04/30 10:50:11;;;;;;;1.67;1.40;;;25.00;99.90;;;;;;5020917;28;20025;-87
2023/04/30 10:52:39;;;;;;;2.40;1.38;;;25.10;99.90;;;;;;5023584;28;20026;-86
2023/04/30 10:55:07;;;;;;;2.55;1.45;;;25.40;99.90;;;;;;5023183;28;20029;-85
2023/04/30 10:57:41;;;;;;;2.60;2.13;;;25.60;99.90;;;;;;5025218;28;20029;-85
2023/04/30 11:00:07;;;;;;;2.10;1.40;;;25.60;99.90;;;;;;5025797;28;20475;-87
2023/04/30 11:02:44;;;;;;;3.78;1.40;;;25.20;99.90;;;;;;5025483;28;20033;-87
2023/04/30 11:05:14;;;;;;;2.67;1.70;;;25.00;99.90;;;;;;5024951;28;20483;-89
2023/04/30 11:07:50;;;;;;;3.08;2.00;;;25.00;99.90;;;;;;5045082;28;20479;-88
2023/04/30 11:10:19;;;;;;;2.95;1.30;;;25.20;99.90;;;;;;5027452;28;20046;-87
2023/04/30 11:12:52;;;;;;;2.22;1.20;;;25.40;99.90;;;;;;5027086;28;20033;-91
2023/04/30 11:15:21;;;;;;;2.65;1.55;;;25.60;99.90;;;;;;5018695;28;20156;-85
2023/04/30 11:17:48;;;;;;;2.15;1.25;;;25.70;99.40;;;;;;5014407;28;20394;-85
2023/04/30 11:20:19;;;;;;;2.67;1.20;;;25.60;99.10;;;;;;5017516;28;20030;-86
2023/04/30 11:22:45;;;;;;;1.75;1.10;;;25.70;99.20;;;;;;5015686;28;20048;-87
2023/04/30 11:25:12;;;;;;;2.22;1.20;;;25.90;99.30;;;;;;5018477;28;20030;-85
2023/04/30 11:27:43;;;;;;;3.25;1.50;;;26.10;99.00;;;;;;5014137;28;20022;-83
2023/04/30 11:30:14;;;;;;;2.58;1.23;;;26.30;98.60;;;;;;5011063;28;20625;-80
2023/04/30 11:32:43;;;;;;;2.60;1.52;;;26.30;98.80;;;;;;5021764;28;20025;-86
2023/04/30 11:35:09;;;;;;;3.08;1.20;;;26.30;98.30;;;;;;5020539;28;20149;-84
2023/04/30 11:37:42;;;;;;;3.38;1.40;;;26.30;98.20;;;;;;5025688;28;20129;-87
2023/04/30 11:40:09;;;;;;;2.80;1.15;;;26.20;97.60;;;;;;5027055;28;20022;-87
2023/04/30 11:42:39;;;;;;;2.25;0.98;;;26.10;97.80;;;;;;5022017;28;20116;-86
2023/04/30 11:45:13;;;;;;;4.05;1.90;;;26.40;97.60;;;;;;5020063;28;20029;-85
2023/04/30 11:47:41;;;;;;;3.15;1.48;;;26.40;96.10;;;;;;5015177;28;20029;-85
2023/04/30 11:50:10;;;;;;;2.58;1.23;;;26.10;96.50;;;;;;5016449;28;20026;-86
2023/04/30 11:52:36;;;;;;;2.58;1.45;;;26.10;96.50;;;;;;5020882;28;20030;-86
2023/04/30 11:55:07;;;;;;;2.67;1.25;;;26.20;96.60;;;;;;5016566;28;20044;-84
2023/04/30 11:57:43;;;;;;;2.53;1.20;;;26.40;96.20;;;;;;5016923;28;20144;-86
2023/04/30 12:00:20;;;;;;;2.78;1.23;;;26.40;95.70;;;;;;5012630;28;20093;-86
2023/04/30 12:02:47;;;;;;;1.40;0.98;;;26.40;95.70;;;;;;5012862;28;20049;-86
2023/04/30 12:05:14;;;;;;;3.10;1.20;;;26.50;95.20;;;;;;5029364;28;20030;-85
2023/04/30 12:07:45;;;;;;;2.72;0.98;;;26.70;94.90;;;;;;5013362;28;20026;-85
2023/04/30 12:10:11;;;;;;;2.33;1.25;;;26.90;94.80;;;;;;5014892;28;20514;-87
2023/04/30 12:12:37;;;;;;;2.88;1.30;;;26.90;95.10;;;;;;5022044;28;20030;-86
2023/04/30 12:15:17;;;;;;;1.30;0.98;;;26.80;95.00;;;;;;5026827;28;20486;-84
2023/04/30 12:17:45;;;;;;;2.42;1.05;;;27.10;95.20;;;;;;5012280;28;20073;-85
2023/04/30 12:20:13;;;;;;;1.17;0.70;;;27.20;94.30;;;;;;5017103;28;20033;-84
2023/04/30 12:22:40;;;;;;;2.08;1.00;;;27.30;94.50;;;;;;5013616;28;20098;-85
2023/04/30 12:25:08;;;;;;;2.17;1.08;;;27.40;94.40;;;;;;5013971;28;20153;-84
2023/04/30 12:27:35;;;;;;;1.60;1.10;;;27.50;94.20;;;;;;5014681;28;20032;-84
2023/04/30 12:30:08;;;;;;;1.83;0.82;;;27.50;93.30;;;;;;5015107;28;20150;-85
2023/04/30 12:32:39;;;;;;;1.88;0.93;;;27.40;93.40;;;;;;5018609;28;20033;-85
2023/04/30 12:35:05;;;;;;;1.80;0.98;;;27.60;93.30;;;;;;5033439;28;20044;-84
2023/04/30 12:37:31;;;;;;;1.83;0.80;;;27.70;93.10;;;;;;5016676;28;20490;-86
2023/04/30 12:39:56;;;;;;;1.15;0.65;;;27.80;93.10;;;;;;5015942;28;20029;-85
2023/04/30 12:42:22;;;;;;;0.85;0.65;;;28.00;92.80;;;;;;5014846;28;20383;-86
2023/04/30 12:44:48;;;;;;;1.27;0.50;;;28.20;92.30;;;;;;5019043;28;20044;-85
2023/04/30 12:47:15;;;;;;;1.20;0.65;;;28.20;92.80;;;;;;5017972;28;20021;-87
2023/04/30 12:49:43;;;;;;;1.10;0.60;;;28.30;92.60;;;;;;5017863;28;20024;-85
2023/04/30 12:52:11;;;;;;;1.65;0.60;;;28.40;92.10;;;;;;5017344;28;20045;-86
2023/04/30 12:54:38;;;;;;;1.30;0.60;;;28.50;91.60;;;;;;5017429;28;20029;-85
2023/04/30 12:57:06;;;;;;;1.02;0.63;;;28.60;91.50;;;;;;5018050;28;20116;-87